sensor_id;sensor_type;location;lat;lon;timestamp;P1;durP1;ratioP1;P2;durP2;ratioP2
52776;SDS011;38656;54.260;20.822;2023-08-01T00:02:20;2.40;;;2.20;;
52776;SDS011;38656;54.260;20.822;2023-08-01T00:04:46;3.00;;;2.70;;
52776;SDS011;38656;54.260;20.822;2023-08-01T00:07:12;3.03;;;2.38;;
52776;SDS011;38656;54.260;20.822;2023-08-01T00:09:38;4.20;;;2.67;;
52776;SDS011;38656;54.260;20.822;2023-08-01T00:12:04;3.17;;;2.20;;
52776;SDS011;38656;54.260;20.822;2023-08-01T00:14:30;2.58;;;2.22;;
52776;SDS011;38656;54.260;20.822;2023-08-01T00:16:57;3.47;;;2.08;;
52776;SDS011;38656;54.260;20.822;2023-08-01T00:19:23;3.70;;;2.40;;
52776;SDS011;38656;54.260;20.822;2023-08-01T00:21:49;2.63;;;2.35;;
52776;SDS011;38656;54.260;20.822;2023-08-01T00:24:15;3.65;;;2.75;;
52776;SDS011;38656;54.260;20.822;2023-08-01T00:26:41;3.42;;;2.38;;
52776;SDS011;38656;54.260;20.822;2023-08-01T00:29:07;4.10;;;2.50;;
52776;SDS011;38656;54.260;20.822;2023-08-01T00:31:33;3.55;;;2.30;;
52776;SDS011;38656;54.260;20.822;2023-08-01T00:33:59;4.40;;;2.45;;
52776;SDS011;38656;54.260;20.822;2023-08-01T00:36:25;4.32;;;2.50;;
52776;SDS011;38656;54.260;20.822;2023-08-01T00:38:51;3.63;;;2.58;;
52776;SDS011;38656;54.260;20.822;2023-08-01T00:41:17;4.15;;;2.35;;
52776;SDS011;38656;54.260;20.822;2023-08-01T00:43:44;3.75;;;2.60;;
52776;SDS011;38656;54.260;20.822;2023-08-01T00:46:10;3.60;;;2.50;;
52776;SDS011;38656;54.260;20.822;2023-08-01T00:48:36;2.58;;;2.35;;
52776;SDS011;38656;54.260;20.822;2023-08-01T00:51:05;3.42;;;2.63;;
52776;SDS011;38656;54.260;20.822;2023-08-01T00:53:33;3.35;;;2.97;;
52776;SDS011;38656;54.260;20.822;2023-08-01T00:55:59;3.17;;;2.63;;
52776;SDS011;38656;54.260;20.822;2023-08-01T00:58:25;3.10;;;2.72;;
52776;SDS011;38656;54.260;20.822;2023-08-01T01:00:52;3.20;;;2.70;;
52776;SDS011;38656;54.260;20.822;2023-08-01T01:03:18;2.67;;;2.47;;
52776;SDS011;38656;54.260;20.822;2023-08-01T01:05:52;3.67;;;3.25;;
52776;SDS011;38656;54.260;20.822;2023-08-01T01:08:19;6.07;;;2.67;;
52776;SDS011;38656;54.260;20.822;2023-08-01T01:10:45;4.97;;;3.13;;
52776;SDS011;38656;54.260;20.822;2023-08-01T01:13:11;6.40;;;2.97;;
52776;SDS011;38656;54.260;20.822;2023-08-01T01:15:38;4.05;;;2.90;;
52776;SDS011;38656;54.260;20.822;2023-08-01T01:18:06;4.22;;;2.78;;
52776;SDS011;38656;54.260;20.822;2023-08-01T01:20:34;4.47;;;3.30;;
52776;SDS011;38656;54.260;20.822;2023-08-01T01:23:00;3.95;;;3.10;;
52776;SDS011;38656;54.260;20.822;2023-08-01T01:25:29;4.38;;;2.85;;
52776;SDS011;38656;54.260;20.822;2023-08-01T01:27:56;3.95;;;2.45;;
52776;SDS011;38656;54.260;20.822;2023-08-01T01:30:22;5.40;;;2.60;;
52776;SDS011;38656;54.260;20.822;2023-08-01T01:32:48;5.22;;;2.22;;
52776;SDS011;38656;54.260;20.822;2023-08-01T01:35:14;6.25;;;2.50;;
52776;SDS011;38656;54.260;20.822;2023-08-01T01:37:40;3.53;;;2.75;;
52776;SDS011;38656;54.260;20.822;2023-08-01T01:40:07;2.88;;;2.63;;
52776;SDS011;38656;54.260;20.822;2023-08-01T01:42:33;5.15;;;3.30;;
52776;SDS011;38656;54.260;20.822;2023-08-01T01:44:59;3.33;;;3.03;;
52776;SDS011;38656;54.260;20.822;2023-08-01T01:47:25;3.42;;;3.08;;
52776;SDS011;38656;54.260;20.822;2023-08-01T01:49:51;6.72;;;3.03;;
52776;SDS011;38656;54.260;20.822;2023-08-01T01:52:17;6.03;;;3.30;;
52776;SDS011;38656;54.260;20.822;2023-08-01T01:54:43;3.88;;;2.67;;
52776;SDS011;38656;54.260;20.822;2023-08-01T01:57:09;5.00;;;2.45;;
52776;SDS011;38656;54.260;20.822;2023-08-01T01:59:35;5.63;;;2.75;;
52776;SDS011;38656;54.260;20.822;2023-08-01T02:02:01;3.05;;;2.63;;
52776;SDS011;38656;54.260;20.822;2023-08-01T02:04:29;3.45;;;2.88;;
52776;SDS011;38656;54.260;20.822;2023-08-01T02:06:55;7.72;;;2.53;;
52776;SDS011;38656;54.260;20.822;2023-08-01T02:09:21;4.32;;;2.70;;
52776;SDS011;38656;54.260;20.822;2023-08-01T02:11:47;3.33;;;2.80;;
52776;SDS011;38656;54.260;20.822;2023-08-01T02:14:14;4.38;;;2.97;;
52776;SDS011;38656;54.260;20.822;2023-08-01T02:16:40;2.72;;;2.53;;
52776;SDS011;38656;54.260;20.822;2023-08-01T02:19:07;3.53;;;2.53;;
52776;SDS011;38656;54.260;20.822;2023-08-01T02:21:33;2.95;;;2.65;;
52776;SDS011;38656;54.260;20.822;2023-08-01T02:23:59;6.47;;;3.03;;
52776;SDS011;38656;54.260;20.822;2023-08-01T02:26:25;3.83;;;3.25;;
52776;SDS011;38656;54.260;20.822;2023-08-01T02:28:51;3.88;;;3.13;;
52776;SDS011;38656;54.260;20.822;2023-08-01T02:31:17;5.88;;;3.13;;
52776;SDS011;38656;54.260;20.822;2023-08-01T02:33:43;8.75;;;3.13;;
52776;SDS011;38656;54.260;20.822;2023-08-01T02:36:09;3.38;;;2.90;;
52776;SDS011;38656;54.260;20.822;2023-08-01T02:38:36;4.88;;;2.92;;
52776;SDS011;38656;54.260;20.822;2023-08-01T02:41:02;6.20;;;3.90;;
52776;SDS011;38656;54.260;20.822;2023-08-01T02:43:28;4.05;;;3.72;;
52776;SDS011;38656;54.260;20.822;2023-08-01T02:45:54;4.03;;;3.00;;
52776;SDS011;38656;54.260;20.822;2023-08-01T02:48:20;5.43;;;2.85;;
52776;SDS011;38656;54.260;20.822;2023-08-01T02:50:46;5.07;;;3.03;;
52776;SDS011;38656;54.260;20.822;2023-08-01T02:53:12;5.88;;;2.85;;
52776;SDS011;38656;54.260;20.822;2023-08-01T02:55:38;5.38;;;3.42;;
52776;SDS011;38656;54.260;20.822;2023-08-01T02:58:04;3.33;;;3.03;;
52776;SDS011;38656;54.260;20.822;2023-08-01T03:00:30;3.50;;;3.13;;
52776;SDS011;38656;54.260;20.822;2023-08-01T03:02:57;3.78;;;2.67;;
52776;SDS011;38656;54.260;20.822;2023-08-01T03:05:23;3.42;;;2.95;;
52776;SDS011;38656;54.260;20.822;2023-08-01T03:07:55;6.25;;;2.88;;
52776;SDS011;38656;54.260;20.822;2023-08-01T03:10:21;4.30;;;2.70;;
52776;SDS011;38656;54.260;20.822;2023-08-01T03:12:47;4.28;;;3.00;;
52776;SDS011;38656;54.260;20.822;2023-08-01T03:15:13;3.10;;;2.78;;
52776;SDS011;38656;54.260;20.822;2023-08-01T03:17:39;6.80;;;2.95;;
52776;SDS011;38656;54.260;20.822;2023-08-01T03:20:05;4.00;;;3.15;;
52776;SDS011;38656;54.260;20.822;2023-08-01T03:22:35;7.88;;;2.90;;
52776;SDS011;38656;54.260;20.822;2023-08-01T03:25:01;3.30;;;2.40;;
52776;SDS011;38656;54.260;20.822;2023-08-01T03:27:32;5.82;;;3.28;;
52776;SDS011;38656;54.260;20.822;2023-08-01T03:29:58;5.65;;;2.90;;
52776;SDS011;38656;54.260;20.822;2023-08-01T03:32:24;4.53;;;3.17;;
52776;SDS011;38656;54.260;20.822;2023-08-01T03:34:50;4.60;;;3.03;;
52776;SDS011;38656;54.260;20.822;2023-08-01T03:37:17;7.18;;;2.50;;
52776;SDS011;38656;54.260;20.822;2023-08-01T03:39:43;3.95;;;2.72;;
52776;SDS011;38656;54.260;20.822;2023-08-01T03:42:09;4.28;;;3.13;;
52776;SDS011;38656;54.260;20.822;2023-08-01T03:44:35;5.18;;;3.20;;
52776;SDS011;38656;54.260;20.822;2023-08-01T03:47:01;3.47;;;2.67;;
52776;SDS011;38656;54.260;20.822;2023-08-01T03:49:27;3.88;;;3.42;;
52776;SDS011;38656;54.260;20.822;2023-08-01T03:51:53;5.05;;;2.78;;
52776;SDS011;38656;54.260;20.822;2023-08-01T03:54:19;4.63;;;3.35;;
52776;SDS011;38656;54.260;20.822;2023-08-01T03:56:45;5.35;;;3.22;;
52776;SDS011;38656;54.260;20.822;2023-08-01T03:59:12;3.83;;;2.60;;
52776;SDS011;38656;54.260;20.822;2023-08-01T04:01:38;4.95;;;3.42;;
52776;SDS011;38656;54.260;20.822;2023-08-01T04:04:04;7.22;;;3.00;;
52776;SDS011;38656;54.260;20.822;2023-08-01T04:06:31;4.78;;;2.55;;
52776;SDS011;38656;54.260;20.822;2023-08-01T04:08:57;3.30;;;3.00;;
52776;SDS011;38656;54.260;20.822;2023-08-01T04:11:25;4.68;;;2.65;;
52776;SDS011;38656;54.260;20.822;2023-08-01T04:13:51;3.25;;;2.88;;
52776;SDS011;38656;54.260;20.822;2023-08-01T04:16:17;3.05;;;2.67;;
52776;SDS011;38656;54.260;20.822;2023-08-01T04:18:43;3.78;;;3.08;;
52776;SDS011;38656;54.260;20.822;2023-08-01T04:21:09;4.25;;;3.28;;
52776;SDS011;38656;54.260;20.822;2023-08-01T04:23:35;3.17;;;2.45;;
52776;SDS011;38656;54.260;20.822;2023-08-01T04:26:01;4.45;;;3.03;;
52776;SDS011;38656;54.260;20.822;2023-08-01T04:28:31;4.57;;;2.53;;
52776;SDS011;38656;54.260;20.822;2023-08-01T04:30:57;4.88;;;3.10;;
52776;SDS011;38656;54.260;20.822;2023-08-01T04:33:23;5.15;;;3.63;;
52776;SDS011;38656;54.260;20.822;2023-08-01T04:35:49;3.70;;;3.40;;
52776;SDS011;38656;54.260;20.822;2023-08-01T04:38:15;4.00;;;3.60;;
52776;SDS011;38656;54.260;20.822;2023-08-01T04:40:41;3.33;;;3.03;;
52776;SDS011;38656;54.260;20.822;2023-08-01T04:43:07;4.60;;;3.92;;
52776;SDS011;38656;54.260;20.822;2023-08-01T04:45:34;8.27;;;2.97;;
52776;SDS011;38656;54.260;20.822;2023-08-01T04:48:00;3.80;;;2.97;;
52776;SDS011;38656;54.260;20.822;2023-08-01T04:50:26;4.72;;;3.58;;
52776;SDS011;38656;54.260;20.822;2023-08-01T04:52:52;6.65;;;3.47;;
52776;SDS011;38656;54.260;20.822;2023-08-01T04:55:18;6.90;;;3.28;;
52776;SDS011;38656;54.260;20.822;2023-08-01T04:57:44;4.25;;;3.47;;
52776;SDS011;38656;54.260;20.822;2023-08-01T05:00:10;4.35;;;3.10;;
52776;SDS011;38656;54.260;20.822;2023-08-01T05:02:36;6.07;;;3.78;;
52776;SDS011;38656;54.260;20.822;2023-08-01T05:05:02;4.72;;;3.53;;
52776;SDS011;38656;54.260;20.822;2023-08-01T05:07:29;6.18;;;3.78;;
52776;SDS011;38656;54.260;20.822;2023-08-01T05:09:55;5.20;;;3.90;;
52776;SDS011;38656;54.260;20.822;2023-08-01T05:12:21;11.57;;;3.28;;
52776;SDS011;38656;54.260;20.822;2023-08-01T05:14:47;7.47;;;3.45;;
52776;SDS011;38656;54.260;20.822;2023-08-01T05:17:13;7.07;;;4.35;;
52776;SDS011;38656;54.260;20.822;2023-08-01T05:19:39;5.00;;;3.05;;
52776;SDS011;38656;54.260;20.822;2023-08-01T05:22:05;7.32;;;4.13;;
52776;SDS011;38656;54.260;20.822;2023-08-01T05:24:31;14.02;;;4.70;;
52776;SDS011;38656;54.260;20.822;2023-08-01T05:26:57;18.75;;;4.40;;
52776;SDS011;38656;54.260;20.822;2023-08-01T05:29:23;9.00;;;3.70;;
52776;SDS011;38656;54.260;20.822;2023-08-01T05:31:49;7.30;;;3.83;;
52776;SDS011;38656;54.260;20.822;2023-08-01T05:34:15;4.75;;;3.92;;
52776;SDS011;38656;54.260;20.822;2023-08-01T05:36:41;5.40;;;3.38;;
52776;SDS011;38656;54.260;20.822;2023-08-01T05:39:07;8.40;;;4.07;;
52776;SDS011;38656;54.260;20.822;2023-08-01T05:41:34;4.57;;;3.38;;
52776;SDS011;38656;54.260;20.822;2023-08-01T05:44:01;5.50;;;3.33;;
52776;SDS011;38656;54.260;20.822;2023-08-01T05:46:27;5.38;;;3.92;;
52776;SDS011;38656;54.260;20.822;2023-08-01T05:48:53;5.72;;;3.33;;
52776;SDS011;38656;54.260;20.822;2023-08-01T05:51:19;5.00;;;3.30;;
52776;SDS011;38656;54.260;20.822;2023-08-01T05:53:45;4.95;;;3.38;;
52776;SDS011;38656;54.260;20.822;2023-08-01T05:56:11;7.30;;;4.20;;
52776;SDS011;38656;54.260;20.822;2023-08-01T05:58:37;4.07;;;3.30;;
52776;SDS011;38656;54.260;20.822;2023-08-01T06:01:03;4.07;;;3.40;;
52776;SDS011;38656;54.260;20.822;2023-08-01T06:03:29;3.92;;;3.53;;
52776;SDS011;38656;54.260;20.822;2023-08-01T06:05:55;6.60;;;3.92;;
52776;SDS011;38656;54.260;20.822;2023-08-01T06:08:21;8.10;;;4.38;;
52776;SDS011;38656;54.260;20.822;2023-08-01T06:10:47;6.80;;;3.83;;
52776;SDS011;38656;54.260;20.822;2023-08-01T06:13:14;7.55;;;4.25;;
52776;SDS011;38656;54.260;20.822;2023-08-01T06:15:40;7.78;;;3.65;;
52776;SDS011;38656;54.260;20.822;2023-08-01T06:18:06;5.13;;;3.65;;
52776;SDS011;38656;54.260;20.822;2023-08-01T06:20:32;5.65;;;4.00;;
52776;SDS011;38656;54.260;20.822;2023-08-01T06:22:58;3.80;;;3.35;;
52776;SDS011;38656;54.260;20.822;2023-08-01T06:25:24;7.18;;;3.83;;
52776;SDS011;38656;54.260;20.822;2023-08-01T06:27:51;5.97;;;3.95;;
52776;SDS011;38656;54.260;20.822;2023-08-01T06:30:17;9.07;;;3.53;;
52776;SDS011;38656;54.260;20.822;2023-08-01T06:32:45;4.25;;;3.58;;
52776;SDS011;38656;54.260;20.822;2023-08-01T06:35:11;8.07;;;4.07;;
52776;SDS011;38656;54.260;20.822;2023-08-01T06:37:37;5.07;;;3.67;;
52776;SDS011;38656;54.260;20.822;2023-08-01T06:40:04;7.45;;;3.83;;
52776;SDS011;38656;54.260;20.822;2023-08-01T06:42:30;4.55;;;3.20;;
52776;SDS011;38656;54.260;20.822;2023-08-01T06:44:56;4.03;;;3.38;;
52776;SDS011;38656;54.260;20.822;2023-08-01T06:47:22;10.23;;;4.60;;
52776;SDS011;38656;54.260;20.822;2023-08-01T06:49:48;5.40;;;3.97;;
52776;SDS011;38656;54.260;20.822;2023-08-01T06:52:14;7.47;;;3.58;;
52776;SDS011;38656;54.260;20.822;2023-08-01T06:54:40;7.65;;;3.25;;
52776;SDS011;38656;54.260;20.822;2023-08-01T06:57:06;6.25;;;3.92;;
52776;SDS011;38656;54.260;20.822;2023-08-01T06:59:33;7.47;;;3.72;;
52776;SDS011;38656;54.260;20.822;2023-08-01T07:01:59;5.88;;;3.90;;
52776;SDS011;38656;54.260;20.822;2023-08-01T07:04:25;5.38;;;4.15;;
52776;SDS011;38656;54.260;20.822;2023-08-01T07:06:51;9.55;;;4.63;;
52776;SDS011;38656;54.260;20.822;2023-08-01T07:09:17;7.63;;;4.07;;
52776;SDS011;38656;54.260;20.822;2023-08-01T07:11:43;8.90;;;4.30;;
52776;SDS011;38656;54.260;20.822;2023-08-01T07:14:09;4.03;;;3.25;;
52776;SDS011;38656;54.260;20.822;2023-08-01T07:16:35;4.82;;;3.67;;
52776;SDS011;38656;54.260;20.822;2023-08-01T07:19:01;11.68;;;4.47;;
52776;SDS011;38656;54.260;20.822;2023-08-01T07:21:27;39.03;;;7.97;;
52776;SDS011;38656;54.260;20.822;2023-08-01T07:23:54;8.30;;;4.85;;
52776;SDS011;38656;54.260;20.822;2023-08-01T07:26:20;6.43;;;3.47;;
52776;SDS011;38656;54.260;20.822;2023-08-01T07:28:46;5.03;;;3.67;;
52776;SDS011;38656;54.260;20.822;2023-08-01T07:31:12;5.20;;;3.55;;
52776;SDS011;38656;54.260;20.822;2023-08-01T07:33:38;5.30;;;3.70;;
52776;SDS011;38656;54.260;20.822;2023-08-01T07:36:04;9.07;;;6.47;;
52776;SDS011;38656;54.260;20.822;2023-08-01T07:38:30;4.18;;;3.53;;
52776;SDS011;38656;54.260;20.822;2023-08-01T07:41:05;9.02;;;3.78;;
52776;SDS011;38656;54.260;20.822;2023-08-01T07:43:32;5.40;;;4.10;;
52776;SDS011;38656;54.260;20.822;2023-08-01T07:45:58;5.95;;;4.22;;
52776;SDS011;38656;54.260;20.822;2023-08-01T07:48:25;6.22;;;4.85;;
52776;SDS011;38656;54.260;20.822;2023-08-01T07:50:51;6.43;;;3.83;;
52776;SDS011;38656;54.260;20.822;2023-08-01T07:53:17;8.43;;;3.90;;
52776;SDS011;38656;54.260;20.822;2023-08-01T07:55:43;7.55;;;4.20;;
52776;SDS011;38656;54.260;20.822;2023-08-01T07:58:09;6.20;;;4.15;;
52776;SDS011;38656;54.260;20.822;2023-08-01T08:00:35;6.57;;;4.78;;
52776;SDS011;38656;54.260;20.822;2023-08-01T08:03:01;12.45;;;5.57;;
52776;SDS011;38656;54.260;20.822;2023-08-01T08:05:28;20.20;;;7.32;;
52776;SDS011;38656;54.260;20.822;2023-08-01T08:07:54;9.55;;;5.80;;
52776;SDS011;38656;54.260;20.822;2023-08-01T08:10:20;10.82;;;6.07;;
52776;SDS011;38656;54.260;20.822;2023-08-01T08:12:46;7.28;;;5.28;;
52776;SDS011;38656;54.260;20.822;2023-08-01T08:15:12;16.50;;;6.40;;
52776;SDS011;38656;54.260;20.822;2023-08-01T08:17:38;14.15;;;6.25;;
52776;SDS011;38656;54.260;20.822;2023-08-01T08:20:05;4.70;;;4.28;;
52776;SDS011;38656;54.260;20.822;2023-08-01T08:22:31;6.85;;;5.03;;
52776;SDS011;38656;54.260;20.822;2023-08-01T08:24:57;7.80;;;4.70;;
52776;SDS011;38656;54.260;20.822;2023-08-01T08:27:23;4.78;;;4.22;;
52776;SDS011;38656;54.260;20.822;2023-08-01T08:29:49;7.22;;;4.75;;
52776;SDS011;38656;54.260;20.822;2023-08-01T08:32:15;5.63;;;4.10;;
52776;SDS011;38656;54.260;20.822;2023-08-01T08:34:41;5.60;;;3.97;;
52776;SDS011;38656;54.260;20.822;2023-08-01T08:37:07;7.60;;;5.72;;
52776;SDS011;38656;54.260;20.822;2023-08-01T08:39:34;6.22;;;4.68;;
52776;SDS011;38656;54.260;20.822;2023-08-01T08:42:00;4.97;;;4.28;;
52776;SDS011;38656;54.260;20.822;2023-08-01T08:44:26;7.03;;;4.05;;
52776;SDS011;38656;54.260;20.822;2023-08-01T08:46:58;5.30;;;4.53;;
52776;SDS011;38656;54.260;20.822;2023-08-01T08:49:27;5.18;;;4.05;;
52776;SDS011;38656;54.260;20.822;2023-08-01T08:51:54;19.83;;;6.45;;
52776;SDS011;38656;54.260;20.822;2023-08-01T08:54:20;6.13;;;4.50;;
52776;SDS011;38656;54.260;20.822;2023-08-01T08:56:46;6.68;;;4.45;;
52776;SDS011;38656;54.260;20.822;2023-08-01T08:59:12;14.07;;;3.75;;
52776;SDS011;38656;54.260;20.822;2023-08-01T09:01:39;7.40;;;4.40;;
52776;SDS011;38656;54.260;20.822;2023-08-01T09:04:05;10.48;;;4.20;;
52776;SDS011;38656;54.260;20.822;2023-08-01T09:06:32;6.32;;;3.97;;
52776;SDS011;38656;54.260;20.822;2023-08-01T09:09:02;10.05;;;4.47;;
52776;SDS011;38656;54.260;20.822;2023-08-01T09:11:34;5.60;;;3.47;;
52776;SDS011;38656;54.260;20.822;2023-08-01T09:14:03;4.82;;;3.40;;
52776;SDS011;38656;54.260;20.822;2023-08-01T09:16:29;5.22;;;3.80;;
52776;SDS011;38656;54.260;20.822;2023-08-01T09:18:55;10.60;;;6.90;;
52776;SDS011;38656;54.260;20.822;2023-08-01T09:21:22;7.63;;;5.20;;
52776;SDS011;38656;54.260;20.822;2023-08-01T09:23:48;5.78;;;5.13;;
52776;SDS011;38656;54.260;20.822;2023-08-01T09:26:14;8.40;;;4.50;;
52776;SDS011;38656;54.260;20.822;2023-08-01T09:28:40;5.15;;;4.05;;
52776;SDS011;38656;54.260;20.822;2023-08-01T09:31:06;10.52;;;3.85;;
52776;SDS011;38656;54.260;20.822;2023-08-01T09:33:41;20.08;;;4.75;;
52776;SDS011;38656;54.260;20.822;2023-08-01T09:36:08;12.60;;;5.03;;
52776;SDS011;38656;54.260;20.822;2023-08-01T09:38:35;21.25;;;5.28;;
52776;SDS011;38656;54.260;20.822;2023-08-01T09:41:01;10.23;;;3.70;;
52776;SDS011;38656;54.260;20.822;2023-08-01T09:43:34;6.43;;;3.55;;
52776;SDS011;38656;54.260;20.822;2023-08-01T09:46:01;4.53;;;3.92;;
52776;SDS011;38656;54.260;20.822;2023-08-01T09:48:27;6.07;;;4.50;;
52776;SDS011;38656;54.260;20.822;2023-08-01T09:53:35;5.65;;;3.95;;
52776;SDS011;38656;54.260;20.822;2023-08-01T09:56:02;7.95;;;3.83;;
52776;SDS011;38656;54.260;20.822;2023-08-01T09:58:31;7.97;;;4.28;;
52776;SDS011;38656;54.260;20.822;2023-08-01T10:00:58;4.75;;;3.50;;
52776;SDS011;38656;54.260;20.822;2023-08-01T10:03:25;5.32;;;3.53;;
52776;SDS011;38656;54.260;20.822;2023-08-01T10:05:51;6.68;;;3.22;;
52776;SDS011;38656;54.260;20.822;2023-08-01T10:08:19;8.18;;;4.28;;
52776;SDS011;38656;54.260;20.822;2023-08-01T10:10:46;5.75;;;3.92;;
52776;SDS011;38656;54.260;20.822;2023-08-01T10:13:12;5.20;;;3.65;;
52776;SDS011;38656;54.260;20.822;2023-08-01T10:15:38;14.02;;;3.60;;
52776;SDS011;38656;54.260;20.822;2023-08-01T10:18:05;5.97;;;3.92;;
52776;SDS011;38656;54.260;20.822;2023-08-01T10:20:31;8.48;;;4.45;;
52776;SDS011;38656;54.260;20.822;2023-08-01T10:22:58;3.80;;;3.45;;
52776;SDS011;38656;54.260;20.822;2023-08-01T10:25:24;7.78;;;4.45;;
52776;SDS011;38656;54.260;20.822;2023-08-01T10:28:00;4.88;;;3.88;;
52776;SDS011;38656;54.260;20.822;2023-08-01T10:30:27;5.68;;;4.40;;
52776;SDS011;38656;54.260;20.822;2023-08-01T10:32:57;4.97;;;3.45;;
52776;SDS011;38656;54.260;20.822;2023-08-01T10:35:41;5.93;;;3.90;;
52776;SDS011;38656;54.260;20.822;2023-08-01T10:40:38;4.38;;;3.58;;
52776;SDS011;38656;54.260;20.822;2023-08-01T10:43:04;9.98;;;4.60;;
52776;SDS011;38656;54.260;20.822;2023-08-01T10:45:30;8.23;;;4.13;;
52776;SDS011;38656;54.260;20.822;2023-08-01T10:48:09;12.63;;;4.53;;
52776;SDS011;38656;54.260;20.822;2023-08-01T10:50:35;39.90;;;8.65;;
52776;SDS011;38656;54.260;20.822;2023-08-01T10:53:02;32.63;;;8.48;;
52776;SDS011;38656;54.260;20.822;2023-08-01T10:55:37;11.30;;;5.38;;
52776;SDS011;38656;54.260;20.822;2023-08-01T10:58:03;5.20;;;3.97;;
52776;SDS011;38656;54.260;20.822;2023-08-01T11:00:30;6.60;;;3.95;;
52776;SDS011;38656;54.260;20.822;2023-08-01T11:02:56;7.00;;;3.75;;
52776;SDS011;38656;54.260;20.822;2023-08-01T11:05:22;8.27;;;4.32;;
52776;SDS011;38656;54.260;20.822;2023-08-01T11:07:55;5.55;;;4.03;;
52776;SDS011;38656;54.260;20.822;2023-08-01T11:10:21;3.92;;;3.35;;
52776;SDS011;38656;54.260;20.822;2023-08-01T11:12:48;5.78;;;4.47;;
52776;SDS011;38656;54.260;20.822;2023-08-01T11:15:14;8.23;;;4.00;;
52776;SDS011;38656;54.260;20.822;2023-08-01T11:17:41;5.55;;;4.40;;
52776;SDS011;38656;54.260;20.822;2023-08-01T11:20:08;5.25;;;3.65;;
52776;SDS011;38656;54.260;20.822;2023-08-01T11:22:34;9.60;;;3.95;;
52776;SDS011;38656;54.260;20.822;2023-08-01T11:25:01;5.70;;;4.53;;
52776;SDS011;38656;54.260;20.822;2023-08-01T11:27:27;8.98;;;5.40;;
52776;SDS011;38656;54.260;20.822;2023-08-01T11:29:53;7.47;;;5.53;;
52776;SDS011;38656;54.260;20.822;2023-08-01T11:32:20;7.70;;;4.80;;
52776;SDS011;38656;54.260;20.822;2023-08-01T11:34:46;12.20;;;5.82;;
52776;SDS011;38656;54.260;20.822;2023-08-01T11:37:13;7.15;;;5.57;;
52776;SDS011;38656;54.260;20.822;2023-08-01T11:39:39;10.30;;;5.43;;
52776;SDS011;38656;54.260;20.822;2023-08-01T11:42:06;7.22;;;4.78;;
52776;SDS011;38656;54.260;20.822;2023-08-01T11:44:32;8.13;;;4.90;;
52776;SDS011;38656;54.260;20.822;2023-08-01T11:46:58;13.00;;;5.05;;
52776;SDS011;38656;54.260;20.822;2023-08-01T11:49:24;6.43;;;4.70;;
52776;SDS011;38656;54.260;20.822;2023-08-01T11:51:51;6.30;;;4.20;;
52776;SDS011;38656;54.260;20.822;2023-08-01T11:54:17;5.40;;;4.35;;
52776;SDS011;38656;54.260;20.822;2023-08-01T11:56:43;4.70;;;4.30;;
52776;SDS011;38656;54.260;20.822;2023-08-01T11:59:10;7.72;;;4.60;;
52776;SDS011;38656;54.260;20.822;2023-08-01T12:01:40;6.80;;;3.95;;
52776;SDS011;38656;54.260;20.822;2023-08-01T12:04:06;7.43;;;3.97;;
52776;SDS011;38656;54.260;20.822;2023-08-01T12:06:33;6.05;;;3.97;;
52776;SDS011;38656;54.260;20.822;2023-08-01T12:09:12;5.70;;;3.67;;
52776;SDS011;38656;54.260;20.822;2023-08-01T12:11:38;6.53;;;4.00;;
52776;SDS011;38656;54.260;20.822;2023-08-01T12:16:34;4.82;;;3.45;;
52776;SDS011;38656;54.260;20.822;2023-08-01T12:19:01;4.88;;;3.80;;
52776;SDS011;38656;54.260;20.822;2023-08-01T12:21:30;4.72;;;3.70;;
52776;SDS011;38656;54.260;20.822;2023-08-01T12:23:56;7.25;;;4.75;;
52776;SDS011;38656;54.260;20.822;2023-08-01T12:26:23;8.55;;;4.22;;
52776;SDS011;38656;54.260;20.822;2023-08-01T12:28:49;8.85;;;5.13;;
52776;SDS011;38656;54.260;20.822;2023-08-01T12:31:16;7.18;;;4.35;;
52776;SDS011;38656;54.260;20.822;2023-08-01T12:33:45;5.60;;;4.53;;
52776;SDS011;38656;54.260;20.822;2023-08-01T12:36:12;8.57;;;4.13;;
52776;SDS011;38656;54.260;20.822;2023-08-01T12:38:39;4.88;;;4.38;;
52776;SDS011;38656;54.260;20.822;2023-08-01T12:41:05;13.75;;;5.25;;
52776;SDS011;38656;54.260;20.822;2023-08-01T12:43:31;10.45;;;5.40;;
52776;SDS011;38656;54.260;20.822;2023-08-01T12:45:57;7.00;;;4.70;;
52776;SDS011;38656;54.260;20.822;2023-08-01T12:48:27;8.10;;;5.10;;
52776;SDS011;38656;54.260;20.822;2023-08-01T12:50:53;11.70;;;5.82;;
52776;SDS011;38656;54.260;20.822;2023-08-01T12:53:22;5.80;;;4.63;;
52776;SDS011;38656;54.260;20.822;2023-08-01T12:55:49;9.32;;;4.75;;
52776;SDS011;38656;54.260;20.822;2023-08-01T12:58:15;5.13;;;4.57;;
52776;SDS011;38656;54.260;20.822;2023-08-01T13:00:42;25.55;;;6.07;;
52776;SDS011;38656;54.260;20.822;2023-08-01T13:03:09;9.38;;;5.15;;
52776;SDS011;38656;54.260;20.822;2023-08-01T13:05:36;9.80;;;4.72;;
52776;SDS011;38656;54.260;20.822;2023-08-01T13:08:02;6.25;;;4.30;;
52776;SDS011;38656;54.260;20.822;2023-08-01T13:10:31;6.15;;;4.55;;
52776;SDS011;38656;54.260;20.822;2023-08-01T13:12:58;6.35;;;4.20;;
52776;SDS011;38656;54.260;20.822;2023-08-01T13:15:24;8.63;;;5.43;;
52776;SDS011;38656;54.260;20.822;2023-08-01T13:17:50;4.78;;;4.28;;
52776;SDS011;38656;54.260;20.822;2023-08-01T13:20:16;5.95;;;4.40;;
52776;SDS011;38656;54.260;20.822;2023-08-01T13:22:44;6.28;;;4.53;;
52776;SDS011;38656;54.260;20.822;2023-08-01T13:25:10;9.38;;;4.07;;
52776;SDS011;38656;54.260;20.822;2023-08-01T13:27:36;8.93;;;4.50;;
52776;SDS011;38656;54.260;20.822;2023-08-01T13:30:03;5.15;;;4.65;;
52776;SDS011;38656;54.260;20.822;2023-08-01T13:32:29;6.30;;;4.20;;
52776;SDS011;38656;54.260;20.822;2023-08-01T13:34:55;5.93;;;4.18;;
52776;SDS011;38656;54.260;20.822;2023-08-01T13:37:21;3.92;;;3.47;;
52776;SDS011;38656;54.260;20.822;2023-08-01T13:39:47;6.63;;;4.32;;
52776;SDS011;38656;54.260;20.822;2023-08-01T13:42:13;9.63;;;4.18;;
52776;SDS011;38656;54.260;20.822;2023-08-01T13:44:39;3.55;;;3.13;;
52776;SDS011;38656;54.260;20.822;2023-08-01T13:47:06;4.63;;;4.03;;
52776;SDS011;38656;54.260;20.822;2023-08-01T13:49:32;5.15;;;3.92;;
52776;SDS011;38656;54.260;20.822;2023-08-01T13:51:58;7.80;;;3.85;;
52776;SDS011;38656;54.260;20.822;2023-08-01T13:54:25;4.07;;;3.65;;
52776;SDS011;38656;54.260;20.822;2023-08-01T13:56:51;5.75;;;4.45;;
52776;SDS011;38656;54.260;20.822;2023-08-01T13:59:18;6.82;;;3.83;;
52776;SDS011;38656;54.260;20.822;2023-08-01T14:01:45;7.10;;;3.75;;
52776;SDS011;38656;54.260;20.822;2023-08-01T14:04:11;5.65;;;3.72;;
52776;SDS011;38656;54.260;20.822;2023-08-01T14:06:40;8.15;;;4.00;;
52776;SDS011;38656;54.260;20.822;2023-08-01T14:09:07;5.93;;;3.75;;
52776;SDS011;38656;54.260;20.822;2023-08-01T14:11:34;6.22;;;4.50;;
52776;SDS011;38656;54.260;20.822;2023-08-01T14:14:00;8.68;;;3.95;;
52776;SDS011;38656;54.260;20.822;2023-08-01T14:16:26;5.00;;;3.30;;
52776;SDS011;38656;54.260;20.822;2023-08-01T14:18:52;3.85;;;3.45;;
52776;SDS011;38656;54.260;20.822;2023-08-01T14:21:20;6.05;;;3.90;;
52776;SDS011;38656;54.260;20.822;2023-08-01T14:23:46;6.38;;;4.30;;
52776;SDS011;38656;54.260;20.822;2023-08-01T14:26:12;6.28;;;4.60;;
52776;SDS011;38656;54.260;20.822;2023-08-01T14:28:39;6.13;;;3.85;;
52776;SDS011;38656;54.260;20.822;2023-08-01T14:31:05;5.93;;;3.53;;
52776;SDS011;38656;54.260;20.822;2023-08-01T14:33:32;6.90;;;4.15;;
52776;SDS011;38656;54.260;20.822;2023-08-01T14:35:59;7.00;;;4.13;;
52776;SDS011;38656;54.260;20.822;2023-08-01T14:38:25;4.53;;;3.58;;